sensor_id;sensor_type;location;lat;lon;timestamp;pressure;altitude;pressure_sealevel;temperature;humidity
38227;BME280;24026;49.446;8.576;2023-12-04T00:00:37;100698.47;;;8.15;38.39
38227;BME280;24026;49.446;8.576;2023-12-04T00:02:58;100693.16;;;8.15;38.56
38227;BME280;24026;49.446;8.576;2023-12-04T00:05:18;100685.44;;;8.13;38.37
38227;BME280;24026;49.446;8.576;2023-12-04T00:07:38;100680.97;;;8.14;38.44
38227;BME280;24026;49.446;8.576;2023-12-04T00:09:58;100682.78;;;8.13;38.30
38227;BME280;24026;49.446;8.576;2023-12-04T00:12:19;100682.00;;;8.13;38.35
38227;BME280;24026;49.446;8.576;2023-12-04T00:14:40;100683.03;;;8.12;38.43
38227;BME280;24026;49.446;8.576;2023-12-04T00:19:58;100679.34;;;8.13;38.33
38227;BME280;24026;49.446;8.576;2023-12-04T00:22:18;100660.22;;;8.11;38.32
38227;BME280;24026;49.446;8.576;2023-12-04T00:24:38;100663.66;;;8.11;38.28
38227;BME280;24026;49.446;8.576;2023-12-04T00:26:59;100651.47;;;8.10;38.53
38227;BME280;24026;49.446;8.576;2023-12-04T00:29:19;100663.88;;;8.10;38.34
38227;BME280;24026;49.446;8.576;2023-12-04T00:31:39;100657.78;;;8.09;38.26
38227;BME280;24026;49.446;8.576;2023-12-04T00:34:00;100663.31;;;8.08;38.30
38227;BME280;24026;49.446;8.576;2023-12-04T00:36:20;100662.50;;;8.07;38.35
38227;BME280;24026;49.446;8.576;2023-12-04T00:38:40;100665.34;;;8.06;38.45
38227;BME280;24026;49.446;8.576;2023-12-04T00:41:01;100663.50;;;8.06;38.43
38227;BME280;24026;49.446;8.576;2023-12-04T00:43:21;100656.63;;;8.05;38.41
38227;BME280;24026;49.446;8.576;2023-12-04T00:45:41;100650.50;;;8.05;38.42
38227;BME280;24026;49.446;8.576;2023-12-04T00:48:02;100655.00;;;8.04;38.44
38227;BME280;24026;49.446;8.576;2023-12-04T00:50:22;100649.69;;;8.04;38.37
38227;BME280;24026;49.446;8.576;2023-12-04T00:52:42;100644.63;;;8.03;38.36
38227;BME280;24026;49.446;8.576;2023-12-04T00:55:03;100641.97;;;8.03;38.33
38227;BME280;24026;49.446;8.576;2023-12-04T00:57:23;100642.97;;;8.02;38.40
38227;BME280;24026;49.446;8.576;2023-12-04T00:59:43;100647.47;;;8.01;38.36
38227;BME280;24026;49.446;8.576;2023-12-04T01:02:04;100646.69;;;8.01;38.48
38227;BME280;24026;49.446;8.576;2023-12-04T01:04:25;100637.91;;;8.00;38.33
38227;BME280;24026;49.446;8.576;2023-12-04T01:06:45;100632.59;;;8.00;38.33
38227;BME280;24026;49.446;8.576;2023-12-04T01:09:06;100632.59;;;8.00;38.39
38227;BME280;24026;49.446;8.576;2023-12-04T01:11:26;100629.16;;;8.00;38.28
38227;BME280;24026;49.446;8.576;2023-12-04T01:13:46;100630.22;;;7.98;38.36
38227;BME280;24026;49.446;8.576;2023-12-04T01:16:07;100621.44;;;7.98;38.24
38227;BME280;24026;49.446;8.576;2023-12-04T01:18:28;100613.50;;;7.98;38.24
38227;BME280;24026;49.446;8.576;2023-12-04T01:20:48;100609.25;;;7.97;38.33
38227;BME280;24026;49.446;8.576;2023-12-04T01:23:08;100601.31;;;7.97;38.41
38227;BME280;24026;49.446;8.576;2023-12-04T01:25:28;100603.94;;;7.97;38.53
38227;BME280;24026;49.446;8.576;2023-12-04T01:27:49;100601.53;;;7.95;38.42
38227;BME280;24026;49.446;8.576;2023-12-04T01:30:09;100601.53;;;7.95;38.40
38227;BME280;24026;49.446;8.576;2023-12-04T01:32:30;100604.16;;;7.95;38.42
38227;BME280;24026;49.446;8.576;2023-12-04T01:34:50;100603.34;;;7.95;38.33
38227;BME280;24026;49.446;8.576;2023-12-04T01:37:11;100596.44;;;7.94;38.23
38227;BME280;24026;49.446;8.576;2023-12-04T01:39:31;100603.34;;;7.95;38.36
38227;BME280;24026;49.446;8.576;2023-12-04T01:41:52;100599.91;;;7.94;38.25
38227;BME280;24026;49.446;8.576;2023-12-04T01:44:12;100604.38;;;7.94;38.33
38227;BME280;24026;49.446;8.576;2023-12-04T01:46:32;100607.84;;;7.94;38.34
38227;BME280;24026;49.446;8.576;2023-12-04T01:48:52;100599.09;;;7.94;38.26
38227;BME280;24026;49.446;8.576;2023-12-04T01:51:13;100599.91;;;7.94;38.32
38227;BME280;24026;49.446;8.576;2023-12-04T01:53:35;100600.69;;;7.95;38.25
38227;BME280;24026;49.446;8.576;2023-12-04T01:55:56;100589.31;;;7.94;38.13
38227;BME280;24026;49.446;8.576;2023-12-04T01:58:16;100588.50;;;7.94;38.14
38227;BME280;24026;49.446;8.576;2023-12-04T02:00:37;100581.56;;;7.93;38.25
38227;BME280;24026;49.446;8.576;2023-12-04T02:02:57;100579.97;;;7.92;38.16
38227;BME280;24026;49.446;8.576;2023-12-04T02:05:18;100580.78;;;7.92;38.16
38227;BME280;24026;49.446;8.576;2023-12-04T02:07:40;100573.06;;;7.91;38.19
38227;BME280;24026;49.446;8.576;2023-12-04T02:10:00;100573.06;;;7.91;38.17
38227;BME280;24026;49.446;8.576;2023-12-04T02:12:21;100568.56;;;7.91;38.19
38227;BME280;24026;49.446;8.576;2023-12-04T02:14:41;100567.97;;;7.89;38.07
38227;BME280;24026;49.446;8.576;2023-12-04T02:17:01;100561.88;;;7.89;38.10
38227;BME280;24026;49.446;8.576;2023-12-04T02:19:25;100561.06;;;7.88;38.27
38227;BME280;24026;49.446;8.576;2023-12-04T02:21:45;100562.91;;;7.88;38.17
38227;BME280;24026;49.446;8.576;2023-12-04T02:24:06;100554.97;;;7.88;38.11
38227;BME280;24026;49.446;8.576;2023-12-04T02:26:28;100556.81;;;7.87;38.05
38227;BME280;24026;49.446;8.576;2023-12-04T02:31:46;100552.31;;;7.88;38.10
38227;BME280;24026;49.446;8.576;2023-12-04T02:34:07;100547.03;;;7.88;38.28
38227;BME280;24026;49.446;8.576;2023-12-04T02:36:28;100546.22;;;7.87;38.15
38227;BME280;24026;49.446;8.576;2023-12-04T02:38:49;100540.94;;;7.87;38.15
38227;BME280;24026;49.446;8.576;2023-12-04T02:41:10;100540.94;;;7.87;38.12
38227;BME280;24026;49.446;8.576;2023-12-04T02:43:30;100526.06;;;7.86;38.12
38227;BME280;24026;49.446;8.576;2023-12-04T02:45:50;100531.34;;;7.86;38.23
38227;BME280;24026;49.446;8.576;2023-12-04T02:48:10;100514.69;;;7.86;38.28
38227;BME280;24026;49.446;8.576;2023-12-04T02:50:31;100512.84;;;7.86;38.21
38227;BME280;24026;49.446;8.576;2023-12-04T02:52:51;100517.31;;;7.86;38.11
38227;BME280;24026;49.446;8.576;2023-12-04T02:55:11;100510.41;;;7.85;38.07
38227;BME280;24026;49.446;8.576;2023-12-04T02:57:31;100506.97;;;7.84;38.24
38227;BME280;24026;49.446;8.576;2023-12-04T02:59:52;100499.03;;;7.84;38.25
38227;BME280;24026;49.446;8.576;2023-12-04T03:02:12;100498.44;;;7.82;38.16
38227;BME280;24026;49.446;8.576;2023-12-04T03:04:33;100493.16;;;7.82;38.13
38227;BME280;24026;49.446;8.576;2023-12-04T03:06:54;100480.13;;;7.81;38.14
38227;BME280;24026;49.446;8.576;2023-12-04T03:09:14;100473.78;;;7.82;38.03
38227;BME280;24026;49.446;8.576;2023-12-04T03:11:34;100475.63;;;7.81;38.25
38227;BME280;24026;49.446;8.576;2023-12-04T03:13:55;100465.06;;;7.81;38.08
38227;BME280;24026;49.446;8.576;2023-12-04T03:16:16;100469.56;;;7.81;38.08
38227;BME280;24026;49.446;8.576;2023-12-04T03:18:36;100466.06;;;7.80;38.25
38227;BME280;24026;49.446;8.576;2023-12-04T03:20:57;100463.44;;;7.80;38.08
38227;BME280;24026;49.446;8.576;2023-12-04T03:23:17;100466.06;;;7.80;38.17
38227;BME280;24026;49.446;8.576;2023-12-04T03:25:37;100469.75;;;7.79;37.88
38227;BME280;24026;49.446;8.576;2023-12-04T03:27:58;100458.38;;;7.78;38.11
38227;BME280;24026;49.446;8.576;2023-12-04T03:30:18;100453.09;;;7.78;38.14
38227;BME280;24026;49.446;8.576;2023-12-04T03:32:40;100456.53;;;7.79;38.16
38227;BME280;24026;49.446;8.576;2023-12-04T03:35:00;100455.75;;;7.78;38.13
38227;BME280;24026;49.446;8.576;2023-12-04T03:37:21;100448.81;;;7.77;38.29
38227;BME280;24026;49.446;8.576;2023-12-04T03:39:41;100445.38;;;7.77;38.08
38227;BME280;24026;49.446;8.576;2023-12-04T03:42:01;100445.38;;;7.77;38.21
38227;BME280;24026;49.446;8.576;2023-12-04T03:44:22;100437.44;;;7.77;38.08
38227;BME280;24026;49.446;8.576;2023-12-04T03:46:42;100434.78;;;7.77;38.03
38227;BME280;24026;49.446;8.576;2023-12-04T03:49:03;100430.28;;;7.77;38.10
38227;BME280;24026;49.446;8.576;2023-12-04T03:51:23;100423.38;;;7.76;38.12
38227;BME280;24026;49.446;8.576;2023-12-04T03:53:44;100424.19;;;7.77;38.25
38227;BME280;24026;49.446;8.576;2023-12-04T03:56:04;100415.44;;;7.76;38.21
38227;BME280;24026;49.446;8.576;2023-12-04T03:58:24;100412.00;;;7.76;38.19
38227;BME280;24026;49.446;8.576;2023-12-04T04:00:45;100410.13;;;7.76;38.14
38227;BME280;24026;49.446;8.576;2023-12-04T04:03:05;100416.47;;;7.75;38.25
38227;BME280;24026;49.446;8.576;2023-12-04T04:05:25;100416.47;;;7.75;38.20
38227;BME280;24026;49.446;8.576;2023-12-04T04:07:45;100419.94;;;7.76;38.29
38227;BME280;24026;49.446;8.576;2023-12-04T04:10:06;100416.47;;;7.75;38.12
38227;BME280;24026;49.446;8.576;2023-12-04T04:12:27;100416.69;;;7.74;38.04
38227;BME280;24026;49.446;8.576;2023-12-04T04:14:47;100416.69;;;7.74;38.08
38227;BME280;24026;49.446;8.576;2023-12-04T04:17:07;100418.53;;;7.73;38.20
38227;BME280;24026;49.446;8.576;2023-12-04T04:19:27;100409.56;;;7.74;38.28
38227;BME280;24026;49.446;8.576;2023-12-04T04:21:48;100406.91;;;7.74;38.06
38227;BME280;24026;49.446;8.576;2023-12-04T04:24:08;100404.28;;;7.74;38.20
38227;BME280;24026;49.446;8.576;2023-12-04T04:26:28;100411.41;;;7.74;38.22
38227;BME280;24026;49.446;8.576;2023-12-04T04:28:49;100417.72;;;7.73;38.25
38227;BME280;24026;49.446;8.576;2023-12-04T04:31:09;100426.25;;;7.75;38.23
38227;BME280;24026;49.446;8.576;2023-12-04T04:33:29;100420.38;;;7.73;38.15
38227;BME280;24026;49.446;8.576;2023-12-04T04:35:50;100423.00;;;7.73;38.23
38227;BME280;24026;49.446;8.576;2023-12-04T04:38:10;100422.22;;;7.72;38.15
38227;BME280;24026;49.446;8.576;2023-12-04T04:40:30;100425.66;;;7.73;38.27
38227;BME280;24026;49.446;8.576;2023-12-04T04:42:50;100423.00;;;7.73;38.11
38227;BME280;24026;49.446;8.576;2023-12-04T04:45:11;100421.41;;;7.72;38.28
38227;BME280;24026;49.446;8.576;2023-12-04T04:47:31;100419.78;;;7.71;38.24
38227;BME280;24026;49.446;8.576;2023-12-04T04:49:51;100416.34;;;7.70;38.31
38227;BME280;24026;49.446;8.576;2023-12-04T04:52:11;100411.84;;;7.71;38.22
38227;BME280;24026;49.446;8.576;2023-12-04T04:54:32;100410.00;;;7.71;38.40
38227;BME280;24026;49.446;8.576;2023-12-04T04:56:52;100407.34;;;7.71;38.21
38227;BME280;24026;49.446;8.576;2023-12-04T04:59:12;100395.31;;;7.75;38.33
38227;BME280;24026;49.446;8.576;2023-12-04T05:01:33;100399.47;;;7.83;38.07
38227;BME280;24026;49.446;8.576;2023-12-04T05:03:53;100390.78;;;7.94;37.95
38227;BME280;24026;49.446;8.576;2023-12-04T05:06:14;100390.25;;;8.04;37.79
38227;BME280;24026;49.446;8.576;2023-12-04T05:08:34;100379.72;;;8.16;37.77
38227;BME280;24026;49.446;8.576;2023-12-04T05:10:54;100374.22;;;8.29;37.41
38227;BME280;24026;49.446;8.576;2023-12-04T05:13:15;100374.06;;;8.43;37.41
38227;BME280;24026;49.446;8.576;2023-12-04T05:15:35;100373.06;;;8.56;37.28
38227;BME280;24026;49.446;8.576;2023-12-04T05:17:56;100371.22;;;8.68;36.92
38227;BME280;24026;49.446;8.576;2023-12-04T05:20:16;100375.50;;;8.81;36.94
38227;BME280;24026;49.446;8.576;2023-12-04T05:22:36;100374.44;;;8.94;36.51
38227;BME280;24026;49.446;8.576;2023-12-04T05:24:57;100370.19;;;9.04;36.46
38227;BME280;24026;49.446;8.576;2023-12-04T05:27:17;100369.94;;;9.18;36.23
38227;BME280;24026;49.446;8.576;2023-12-04T05:29:37;100370.16;;;9.28;36.23
38227;BME280;24026;49.446;8.576;2023-12-04T05:31:58;100372.00;;;9.39;36.09
38227;BME280;24026;49.446;8.576;2023-12-04T05:34:18;100366.91;;;9.50;35.72
38227;BME280;24026;49.446;8.576;2023-12-04T05:36:38;100378.28;;;9.62;35.46
38227;BME280;24026;49.446;8.576;2023-12-04T05:38:58;100364.41;;;9.72;35.33
38227;BME280;24026;49.446;8.576;2023-12-04T05:41:19;100378.69;;;9.82;35.49
38227;BME280;24026;49.446;8.576;2023-12-04T05:43:39;100378.88;;;9.93;35.33
38227;BME280;24026;49.446;8.576;2023-12-04T05:45:59;100381.72;;;10.03;35.00
38227;BME280;24026;49.446;8.576;2023-12-04T05:48:19;100384.56;;;10.13;34.97
38227;BME280;24026;49.446;8.576;2023-12-04T05:50:40;100391.91;;;10.23;34.73
38227;BME280;24026;49.446;8.576;2023-12-04T05:53:00;100391.31;;;10.33;34.75
38227;BME280;24026;49.446;8.576;2023-12-04T05:55:20;100394.38;;;10.42;34.56
38227;BME280;24026;49.446;8.576;2023-12-04T05:57:41;100384.75;;;10.52;34.47
38227;BME280;24026;49.446;8.576;2023-12-04T06:00:01;100382.72;;;10.60;34.30
38227;BME280;24026;49.446;8.576;2023-12-04T06:02:22;100379.41;;;10.69;34.19
38227;BME280;24026;49.446;8.576;2023-12-04T06:04:42;100373.69;;;10.78;34.19
38227;BME280;24026;49.446;8.576;2023-12-04T06:07:02;100381.00;;;10.87;33.99
38227;BME280;24026;49.446;8.576;2023-12-04T06:09:24;100379.00;;;10.94;33.94
38227;BME280;24026;49.446;8.576;2023-12-04T06:11:44;100376.72;;;11.03;33.86
38227;BME280;24026;49.446;8.576;2023-12-04T06:14:04;100374.44;;;11.12;33.80
38227;BME280;24026;49.446;8.576;2023-12-04T06:16:26;100372.41;;;11.19;33.55
38227;BME280;24026;49.446;8.576;2023-12-04T06:18:47;100372.22;;;11.26;33.54
38227;BME280;24026;49.446;8.576;2023-12-04T06:21:08;100371.25;;;11.32;33.46
38227;BME280;24026;49.446;8.576;2023-12-04T06:23:28;100349.47;;;11.35;33.48
38227;BME280;24026;49.446;8.576;2023-12-04T06:25:50;100358.56;;;11.39;33.25
38227;BME280;24026;49.446;8.576;2023-12-04T06:28:12;100341.06;;;11.43;33.29
38227;BME280;24026;49.446;8.576;2023-12-04T06:30:33;100329.44;;;11.49;33.14
38227;BME280;24026;49.446;8.576;2023-12-04T06:32:53;100341.47;;;11.57;33.16
38227;BME280;24026;49.446;8.576;2023-12-04T06:35:14;100333.03;;;11.65;32.85
38227;BME280;24026;49.446;8.576;2023-12-04T06:37:37;100321.41;;;11.72;32.96
38227;BME280;24026;49.446;8.576;2023-12-04T06:40:00;100319.88;;;11.81;32.75
38227;BME280;24026;49.446;8.576;2023-12-04T06:42:24;100314.13;;;11.89;32.55
38227;BME280;24026;49.446;8.576;2023-12-04T06:44:45;100314.75;;;11.96;32.49
38227;BME280;24026;49.446;8.576;2023-12-04T06:47:05;100303.91;;;12.03;32.35
38227;BME280;24026;49.446;8.576;2023-12-04T06:49:28;100306.34;;;12.10;32.45
38227;BME280;24026;49.446;8.576;2023-12-04T06:51:49;100285.09;;;12.15;32.29
38227;BME280;24026;49.446;8.576;2023-12-04T06:54:10;100284.06;;;12.21;32.35
38227;BME280;24026;49.446;8.576;2023-12-04T06:56:31;100275.03;;;12.27;32.14
38227;BME280;24026;49.446;8.576;2023-12-04T06:58:52;100266.59;;;12.35;32.04
38227;BME280;24026;49.446;8.576;2023-12-04T07:01:14;100266.09;;;12.44;32.09
38227;BME280;24026;49.446;8.576;2023-12-04T07:03:35;100268.56;;;12.50;31.97
38227;BME280;24026;49.446;8.576;2023-12-04T07:05:56;100257.91;;;12.55;31.98
38227;BME280;24026;49.446;8.576;2023-12-04T07:08:18;100253.66;;;12.59;31.89
38227;BME280;24026;49.446;8.576;2023-12-04T07:10:39;100251.84;;;12.65;31.77
38227;BME280;24026;49.446;8.576;2023-12-04T07:13:00;100252.66;;;12.71;31.77
38227;BME280;24026;49.446;8.576;2023-12-04T07:15:20;100254.03;;;12.78;31.72
38227;BME280;24026;49.446;8.576;2023-12-04T07:17:41;100243.13;;;12.85;31.64
38227;BME280;24026;49.446;8.576;2023-12-04T07:20:01;100235.16;;;12.90;31.55
38227;BME280;24026;49.446;8.576;2023-12-04T07:22:21;100246.66;;;12.96;31.55
38227;BME280;24026;49.446;8.576;2023-12-04T07:24:42;100241.31;;;13.01;31.40
38227;BME280;24026;49.446;8.576;2023-12-04T07:27:02;100241.09;;;13.08;31.37
38227;BME280;24026;49.446;8.576;2023-12-04T07:29:22;100239.25;;;13.13;31.34
38227;BME280;24026;49.446;8.576;2023-12-04T07:31:44;100227.81;;;13.18;31.19
38227;BME280;24026;49.446;8.576;2023-12-04T07:34:04;100228.59;;;13.24;31.20
38227;BME280;24026;49.446;8.576;2023-12-04T07:36:26;100228.88;;;13.27;31.10
38227;BME280;24026;49.446;8.576;2023-12-04T07:38:47;100238.53;;;13.33;31.11
38227;BME280;24026;49.446;8.576;2023-12-04T07:41:10;100245.22;;;13.41;30.95
38227;BME280;24026;49.446;8.576;2023-12-04T07:43:30;100249.50;;;13.47;30.90
38227;BME280;24026;49.446;8.576;2023-12-04T07:45:51;100252.72;;;13.55;30.96
38227;BME280;24026;49.446;8.576;2023-12-04T07:48:11;100242.88;;;13.60;31.01
38227;BME280;24026;49.446;8.576;2023-12-04T07:50:31;100246.06;;;13.67;31.02
38227;BME280;24026;49.446;8.576;2023-12-04T07:52:53;100240.47;;;13.74;30.85
38227;BME280;24026;49.446;8.576;2023-12-04T07:55:13;100233.25;;;13.80;30.77
38227;BME280;24026;49.446;8.576;2023-12-04T07:57:34;100241.00;;;13.86;30.87
38227;BME280;24026;49.446;8.576;2023-12-04T07:59:55;100248.75;;;13.93;30.87
38227;BME280;24026;49.446;8.576;2023-12-04T08:02:16;100249.56;;;13.99;30.64
38227;BME280;24026;49.446;8.576;2023-12-04T08:04:37;100245.03;;;14.04;30.48
38227;BME280;24026;49.446;8.576;2023-12-04T08:07:03;100247.69;;;14.09;30.43
38227;BME280;24026;49.446;8.576;2023-12-04T08:09:24;100240.50;;;14.15;30.25
38227;BME280;24026;49.446;8.576;2023-12-04T08:11:44;100242.06;;;14.21;30.38
38227;BME280;24026;49.446;8.576;2023-12-04T08:14:05;100229.50;;;14.27;30.22
38227;BME280;24026;49.446;8.576;2023-12-04T08:16:27;100237.53;;;14.32;30.11
38227;BME280;24026;49.446;8.576;2023-12-04T08:18:49;100221.75;;;14.36;30.16
38227;BME280;24026;49.446;8.576;2023-12-04T08:21:11;100214.50;;;14.41;29.95
38227;BME280;24026;49.446;8.576;2023-12-04T08:23:31;100211.03;;;14.46;29.96
38227;BME280;24026;49.446;8.576;2023-12-04T08:25:52;100207.28;;;14.52;29.87
38227;BME280;24026;49.446;8.576;2023-12-04T08:28:12;100197.34;;;14.58;29.72
38227;BME280;24026;49.446;8.576;2023-12-04T08:30:33;100205.66;;;14.61;29.86
38227;BME280;24026;49.446;8.576;2023-12-04T08:32:53;100199.50;;;14.66;29.82
38227;BME280;24026;49.446;8.576;2023-12-04T08:35:13;100194.13;;;14.71;29.73
38227;BME280;24026;49.446;8.576;2023-12-04T08:37:34;100190.34;;;14.77;29.68
38227;BME280;24026;49.446;8.576;2023-12-04T08:39:57;100195.16;;;14.80;29.66
38227;BME280;24026;49.446;8.576;2023-12-04T08:42:18;100195.16;;;14.86;29.62
38227;BME280;24026;49.446;8.576;2023-12-04T08:44:39;100204.22;;;14.90;29.44
38227;BME280;24026;49.446;8.576;2023-12-04T08:47:01;100196.16;;;14.95;29.60
38227;BME280;24026;49.446;8.576;2023-12-04T08:49:23;100189.97;;;14.99;29.48
38227;BME280;24026;49.446;8.576;2023-12-04T08:51:45;100190.78;;;15.05;29.40
38227;BME280;24026;49.446;8.576;2023-12-04T08:54:06;100194.22;;;15.11;29.35
38227;BME280;24026;49.446;8.576;2023-12-04T08:56:28;100191.22;;;15.17;29.49
38227;BME280;24026;49.446;8.576;2023-12-04T08:58:49;100193.59;;;15.24;29.11
38227;BME280;24026;49.446;8.576;2023-12-04T09:01:15;100180.69;;;15.31;29.18
38227;BME280;24026;49.446;8.576;2023-12-04T09:03:36;100172.34;;;15.38;29.06
38227;BME280;24026;49.446;8.576;2023-12-04T09:05:57;100175.00;;;15.43;28.99
38227;BME280;24026;49.446;8.576;2023-12-04T09:08:18;100175.78;;;15.49;28.94
38227;BME280;24026;49.446;8.576;2023-12-04T09:10:39;100180.00;;;15.55;28.88
38227;BME280;24026;49.446;8.576;2023-12-04T09:12:59;100175.41;;;15.61;28.83
38227;BME280;24026;49.446;8.576;2023-12-04T09:15:20;100178.84;;;15.66;28.81
38227;BME280;24026;49.446;8.576;2023-12-04T09:17:40;100184.16;;;15.71;28.75
38227;BME280;24026;49.446;8.576;2023-12-04T09:20:01;100196.47;;;15.78;28.76
38227;BME280;24026;49.446;8.576;2023-12-04T09:22:22;100200.72;;;15.84;28.64
38227;BME280;24026;49.446;8.576;2023-12-04T09:24:42;100197.44;;;15.87;28.61
38227;BME280;24026;49.446;8.576;2023-12-04T09:27:04;100198.00;;;15.89;28.74
38227;BME280;24026;49.446;8.576;2023-12-04T09:29:27;100193.97;;;15.86;28.57
38227;BME280;24026;49.446;8.576;2023-12-04T09:31:47;100196.72;;;15.81;28.69
38227;BME280;24026;49.446;8.576;2023-12-04T09:34:08;100197.00;;;15.74;28.79
38227;BME280;24026;49.446;8.576;2023-12-04T09:36:29;100194.41;;;15.64;28.80
38227;BME280;24026;49.446;8.576;2023-12-04T09:38:51;100191.53;;;15.55;28.89
38227;BME280;24026;49.446;8.576;2023-12-04T09:41:12;100185.16;;;15.46;29.13
38227;BME280;24026;49.446;8.576;2023-12-04T09:43:32;100177.72;;;15.38;29.19
38227;BME280;24026;49.446;8.576;2023-12-04T09:45:53;100174.84;;;15.29;29.20
38227;BME280;24026;49.446;8.576;2023-12-04T09:48:13;100181.56;;;15.22;29.50
38227;BME280;24026;49.446;8.576;2023-12-04T09:50:35;100180.81;;;15.16;29.45
38227;BME280;24026;49.446;8.576;2023-12-04T09:52:56;100173.03;;;15.14;29.47
38227;BME280;24026;49.446;8.576;2023-12-04T09:55:21;100177.59;;;15.14;29.51
38227;BME280;24026;49.446;8.576;2023-12-04T09:57:45;100178.41;;;15.14;29.42
38227;BME280;24026;49.446;8.576;2023-12-04T10:00:06;100173.28;;;15.18;29.42
38227;BME280;24026;49.446;8.576;2023-12-04T10:02:27;100182.91;;;15.24;29.47
38227;BME280;24026;49.446;8.576;2023-12-04T10:04:51;100190.34;;;15.32;29.35
38227;BME280;24026;49.446;8.576;2023-12-04T10:07:12;100185.47;;;15.40;29.21
38227;BME280;24026;49.446;8.576;2023-12-04T10:09:33;100188.63;;;15.47;29.15
38227;BME280;24026;49.446;8.576;2023-12-04T10:11:58;100182.94;;;15.53;29.09
38227;BME280;24026;49.446;8.576;2023-12-04T10:14:19;100174.91;;;15.59;29.04
38227;BME280;24026;49.446;8.576;2023-12-04T10:16:40;100186.59;;;15.68;29.00
38227;BME280;24026;49.446;8.576;2023-12-04T10:19:13;100171.84;;;15.76;28.90
38227;BME280;24026;49.446;8.576;2023-12-04T10:21:34;100177.69;;;15.83;28.89
38227;BME280;24026;49.446;8.576;2023-12-04T10:23:54;100176.28;;;15.90;28.78
38227;BME280;24026;49.446;8.576;2023-12-04T10:26:16;100179.41;;;15.98;28.59
38227;BME280;24026;49.446;8.576;2023-12-04T10:28:39;100168.38;;;16.04;28.73
38227;BME280;24026;49.446;8.576;2023-12-04T10:31:00;100164.84;;;16.09;28.70
38227;BME280;24026;49.446;8.576;2023-12-04T10:33:21;100175.50;;;16.14;28.54
38227;BME280;24026;49.446;8.576;2023-12-04T10:35:45;100167.97;;;16.16;28.63
38227;BME280;24026;49.446;8.576;2023-12-04T10:38:07;100159.09;;;16.21;28.44
38227;BME280;24026;49.446;8.576;2023-12-04T10:40:29;100149.09;;;16.26;28.58
38227;BME280;24026;49.446;8.576;2023-12-04T10:42:49;100142.38;;;16.29;28.48
38227;BME280;24026;49.446;8.576;2023-12-04T10:45:11;100133.50;;;16.28;28.37
38227;BME280;24026;49.446;8.576;2023-12-04T10:47:31;100132.22;;;16.26;28.49
38227;BME280;24026;49.446;8.576;2023-12-04T10:49:54;100126.38;;;16.19;28.54
38227;BME280;24026;49.446;8.576;2023-12-04T10:52:15;100126.50;;;16.08;28.61
38227;BME280;24026;49.446;8.576;2023-12-04T10:54:36;100121.53;;;15.97;28.56
38227;BME280;24026;49.446;8.576;2023-12-04T10:56:58;100116.78;;;15.88;28.69
38227;BME280;24026;49.446;8.576;2023-12-04T10:59:21;100115.81;;;15.79;28.88
38227;BME280;24026;49.446;8.576;2023-12-04T11:01:44;100107.03;;;15.68;28.92
38227;BME280;24026;49.446;8.576;2023-12-04T11:04:07;100099.03;;;15.63;28.89
38227;BME280;24026;49.446;8.576;2023-12-04T11:06:28;100088.94;;;15.55;28.92
38227;BME280;24026;49.446;8.576;2023-12-04T11:08:57;100083.09;;;15.48;29.06
38227;BME280;24026;49.446;8.576;2023-12-04T11:11:22;100088.22;;;15.44;29.32
38227;BME280;24026;49.446;8.576;2023-12-04T11:13:48;100085.84;;;15.43;29.01
38227;BME280;24026;49.446;8.576;2023-12-04T11:16:15;100091.69;;;15.45;29.08
38227;BME280;24026;49.446;8.576;2023-12-04T11:18:39;100078.25;;;15.50;29.16
38227;BME280;24026;49.446;8.576;2023-12-04T11:21:04;100078.22;;;15.55;28.93
38227;BME280;24026;49.446;8.576;2023-12-04T11:23:26;100071.47;;;15.63;28.91
38227;BME280;24026;49.446;8.576;2023-12-04T11:25:51;100067.94;;;15.67;28.84
38227;BME280;24026;49.446;8.576;2023-12-04T11:28:13;100074.53;;;15.75;28.77
38227;BME280;24026;49.446;8.576;2023-12-04T11:30:36;100060.56;;;15.83;28.78
38227;BME280;24026;49.446;8.576;2023-12-04T11:32:57;100060.22;;;15.90;28.82
38227;BME280;24026;49.446;8.576;2023-12-04T11:35:17;100042.72;;;15.98;28.75
38227;BME280;24026;49.446;8.576;2023-12-04T11:37:40;100038.59;;;16.05;28.67
38227;BME280;24026;49.446;8.576;2023-12-04T11:40:02;100022.16;;;16.12;28.63
38227;BME280;24026;49.446;8.576;2023-12-04T11:42:25;100013.78;;;16.19;28.45
38227;BME280;24026;49.446;8.576;2023-12-04T11:44:47;100010.75;;;16.25;28.58
38227;BME280;24026;49.446;8.576;2023-12-04T11:47:07;99999.66;;;16.32;28.43
38227;BME280;24026;49.446;8.576;2023-12-04T11:49:29;99996.94;;;16.37;28.31
38227;BME280;24026;49.446;8.576;2023-12-04T11:51:49;99985.03;;;16.43;28.43
38227;BME280;24026;49.446;8.576;2023-12-04T11:54:12;99979.31;;;16.50;28.23
38227;BME280;24026;49.446;8.576;2023-12-04T11:56:34;99972.00;;;16.56;28.41
38227;BME280;24026;49.446;8.576;2023-12-04T11:58:54;99968.94;;;16.62;28.17
38227;BME280;24026;49.446;8.576;2023-12-04T12:01:22;99962.09;;;16.70;28.24
38227;BME280;24026;49.446;8.576;2023-12-04T12:03:42;99957.97;;;16.78;28.07
38227;BME280;24026;49.446;8.576;2023-12-04T12:06:03;99950.13;;;16.81;27.94
38227;BME280;24026;49.446;8.576;2023-12-04T12:08:24;99942.84;;;16.82;28.09
38227;BME280;24026;49.446;8.576;2023-12-04T12:10:44;99940.47;;;16.80;28.10
38227;BME280;24026;49.446;8.576;2023-12-04T12:13:05;99939.75;;;16.75;28.22
38227;BME280;24026;49.446;8.576;2023-12-04T12:15:26;99931.78;;;16.70;28.10
38227;BME280;24026;49.446;8.576;2023-12-04T12:17:47;99928.69;;;16.62;28.36
38227;BME280;24026;49.446;8.576;2023-12-04T12:20:11;99912.44;;;16.54;28.39
38227;BME280;24026;49.446;8.576;2023-12-04T12:22:32;99910.44;;;16.45;28.69
38227;BME280;24026;49.446;8.576;2023-12-04T12:24:53;99906.84;;;16.36;28.64
38227;BME280;24026;49.446;8.576;2023-12-04T12:27:14;99907.50;;;16.28;28.96